createdAt,value
2017-10-22T00:03:01.797Z,19.20
2017-10-22T00:06:27.201Z,19.20
2017-10-22T00:09:53.348Z,19.20
2017-10-22T00:13:19.725Z,19.20
2017-10-22T00:16:45.237Z,19.20
2017-10-22T00:20:11.230Z,19.20
2017-10-22T00:23:37.662Z,19.10
2017-10-22T00:27:03.153Z,19.20
2017-10-22T00:30:28.678Z,19.10
2017-10-22T00:33:54.995Z,19.10
2017-10-22T00:37:20.397Z,19.10
2017-10-22T00:40:46.537Z,19.10
2017-10-22T00:44:12.003Z,19.10
2017-10-22T00:47:37.725Z,19.10
2017-10-22T00:51:04.013Z,19.00
2017-10-22T00:54:29.245Z,19.00
2017-10-22T00:57:55.804Z,19.00
2017-10-22T01:01:23.192Z,19.00
2017-10-22T01:04:48.691Z,19.00
2017-10-22T01:08:14.077Z,19.00
2017-10-22T01:11:40.437Z,19.00
2017-10-22T01:15:06.869Z,19.00
2017-10-22T01:18:32.183Z,19.00
2017-10-22T01:21:58.459Z,19.00
2017-10-22T01:25:24.056Z,19.00
2017-10-22T01:28:51.400Z,19.00
2017-10-22T01:32:16.908Z,19.00
2017-10-22T01:35:50.347Z,18.90
2017-10-22T01:39:21.788Z,18.90
2017-10-22T01:42:47.495Z,18.90
2017-10-22T01:46:14.181Z,18.90
2017-10-22T01:49:40.233Z,18.90
2017-10-22T01:53:05.721Z,18.90
2017-10-22T01:56:33.573Z,18.90
2017-10-22T01:59:59.751Z,18.90
2017-10-22T02:03:27.482Z,18.90
2017-10-22T02:06:54.476Z,18.90
2017-10-22T02:10:20.179Z,18.90
2017-10-22T02:13:48.648Z,18.80
2017-10-22T02:17:14.492Z,18.80
2017-10-22T02:20:39.929Z,18.90
2017-10-22T02:24:05.820Z,18.80
2017-10-22T02:27:33.644Z,18.70
2017-10-22T02:31:00.207Z,18.80
2017-10-22T02:34:26.125Z,18.80
2017-10-22T02:37:51.941Z,18.80
2017-10-22T02:41:17.566Z,18.70
2017-10-22T02:44:43.603Z,18.70
2017-10-22T02:48:09.310Z,18.70
2017-10-22T02:51:35.033Z,18.70
2017-10-22T02:55:00.658Z,18.70
2017-10-22T02:58:26.421Z,18.70
2017-10-22T03:01:52.127Z,18.80
2017-10-22T03:05:17.953Z,18.70
2017-10-22T03:08:44.777Z,18.70
2017-10-22T03:12:10.753Z,18.70
2017-10-22T03:15:36.340Z,18.70
2017-10-22T03:19:04.070Z,18.70
2017-10-22T03:22:29.756Z,18.70
2017-10-22T03:25:56.989Z,18.70
2017-10-22T03:29:22.690Z,18.70
2017-10-22T03:32:48.277Z,18.70
2017-10-22T03:36:13.615Z,18.70
2017-10-22T03:39:39.570Z,18.70
2017-10-22T03:43:05.147Z,18.70
2017-10-22T03:46:30.549Z,18.70
2017-10-22T03:49:56.429Z,18.70
2017-10-22T03:53:21.958Z,18.70
2017-10-22T03:56:47.345Z,18.70
2017-10-22T04:00:13.635Z,18.70
2017-10-22T04:03:39.730Z,18.70
2017-10-22T04:07:05.257Z,18.70
2017-10-22T04:10:31.137Z,18.70
2017-10-22T04:13:56.599Z,18.60
2017-10-22T04:17:22.338Z,18.70
2017-10-22T04:20:48.394Z,18.60
2017-10-22T04:24:13.761Z,18.70
2017-10-22T04:27:39.154Z,18.60
2017-10-22T04:31:04.497Z,18.60
2017-10-22T04:34:30.047Z,18.60
2017-10-22T04:37:55.622Z,18.60
2017-10-22T04:41:21.777Z,18.60
2017-10-22T04:44:47.087Z,18.60
2017-10-22T04:48:12.509Z,18.60
2017-10-22T04:51:38.642Z,18.50
2017-10-22T04:55:04.045Z,18.50
2017-10-22T04:58:29.461Z,18.60
2017-10-22T05:01:58.052Z,18.50
2017-10-22T05:05:24.365Z,18.50
2017-10-22T05:08:49.713Z,18.50
2017-10-22T05:12:15.653Z,18.50
2017-10-22T05:15:41.757Z,18.40
2017-10-22T05:19:07.133Z,18.40
2017-10-22T05:22:34.662Z,18.40
2017-10-22T05:26:00.056Z,18.40
2017-10-22T05:29:25.577Z,18.40
2017-10-22T05:32:50.909Z,18.50
2017-10-22T05:36:16.486Z,18.40
2017-10-22T05:39:42.385Z,18.40
2017-10-22T05:43:07.878Z,18.40
2017-10-22T05:46:34.885Z,18.40
2017-10-22T05:50:00.360Z,18.40
2017-10-22T05:53:25.855Z,18.30
2017-10-22T05:56:51.401Z,18.40
2017-10-22T06:00:17.522Z,18.30
2017-10-22T06:03:43.017Z,18.30
2017-10-22T06:07:08.678Z,18.30
2017-10-22T06:10:34.745Z,18.30
2017-10-22T06:14:00.126Z,18.30
2017-10-22T06:17:26.070Z,18.50
2017-10-22T06:20:51.544Z,18.70
2017-10-22T06:24:17.013Z,18.90
2017-10-22T06:27:43.593Z,20.10
2017-10-22T06:31:09.050Z,20.10
2017-10-22T06:34:34.401Z,20.80
2017-10-22T06:38:00.416Z,21.10
2017-10-22T06:41:25.920Z,21.50
2017-10-22T06:44:52.289Z,21.90
2017-10-22T06:48:19.297Z,21.90
2017-10-22T06:51:44.898Z,22.10
2017-10-22T06:58:40.284Z,22.40
2017-10-22T07:02:06.126Z,22.60
2017-10-22T07:05:32.147Z,22.70
2017-10-22T07:08:57.648Z,22.70
2017-10-22T07:12:28.018Z,23.00
2017-10-22T07:15:53.658Z,23.10
2017-10-22T07:22:49.244Z,23.40
2017-10-22T07:26:14.748Z,23.40
2017-10-22T07:29:41.419Z,23.60
2017-10-22T07:33:07.628Z,23.60
2017-10-22T07:36:33.226Z,23.60
2017-10-22T07:39:59.242Z,23.80
2017-10-22T07:43:24.758Z,23.90
2017-10-22T07:46:50.341Z,23.90
2017-10-22T07:50:29.674Z,24.00
2017-10-22T07:53:55.502Z,24.10
2017-10-22T07:57:21.162Z,24.10
2017-10-22T08:00:47.175Z,24.20
2017-10-22T08:07:42.585Z,24.40
2017-10-22T08:11:08.226Z,24.30
2017-10-22T08:14:34.030Z,24.50
2017-10-22T08:17:59.388Z,24.50
2017-10-22T08:21:25.132Z,24.40
2017-10-22T08:24:50.609Z,24.50
2017-10-22T08:28:16.214Z,24.40
2017-10-22T08:31:43.067Z,24.30
2017-10-22T08:35:10.456Z,24.40
2017-10-22T08:38:36.100Z,24.40
2017-10-22T08:42:02.204Z,24.40
2017-10-22T08:45:27.610Z,24.20
2017-10-22T08:48:53.068Z,24.30
2017-10-22T08:52:21.393Z,24.40
2017-10-22T08:55:46.708Z,24.50
2017-10-22T08:59:11.864Z,24.30
2017-10-22T09:02:38.300Z,24.40
2017-10-22T09:06:03.538Z,24.40
2017-10-22T09:09:28.716Z,24.30
2017-10-22T09:13:00.513Z,24.20
2017-10-22T09:16:25.705Z,24.20
2017-10-22T09:19:54.332Z,23.90
2017-10-22T09:23:19.615Z,23.90
2017-10-22T09:26:45.595Z,23.60
2017-10-22T09:30:12.644Z,23.60
2017-10-22T09:33:37.875Z,23.40
2017-10-22T09:37:03.165Z,23.20
2017-10-22T09:40:28.336Z,23.00
2017-10-22T09:43:54.264Z,22.80
2017-10-22T09:47:21.251Z,22.70
2017-10-22T09:50:46.465Z,22.60
2017-10-22T09:54:11.636Z,22.50
2017-10-22T09:57:37.921Z,22.30
2017-10-22T10:01:03.812Z,22.30
2017-10-22T10:04:30.136Z,22.10
2017-10-22T10:11:53.370Z,22.00
2017-10-22T10:15:22.097Z,21.90
2017-10-22T10:18:50.361Z,22.10
2017-10-22T10:22:23.934Z,22.20
2017-10-22T10:25:49.533Z,22.10
2017-10-22T10:29:14.896Z,21.90
2017-10-22T10:32:41.411Z,22.10
2017-10-22T10:36:06.812Z,22.30
2017-10-22T10:39:32.260Z,22.30
2017-10-22T10:43:00.005Z,22.30
2017-10-22T10:46:26.000Z,22.20
2017-10-22T10:49:51.300Z,22.20
2017-10-22T10:53:19.155Z,22.20
2017-10-22T10:56:44.508Z,22.10
2017-10-22T11:00:11.804Z,21.90
2017-10-22T11:03:37.270Z,21.90
2017-10-22T11:07:02.491Z,21.80
2017-10-22T11:10:28.021Z,21.80
2017-10-22T11:13:54.189Z,22.00
2017-10-22T11:17:21.920Z,22.20
2017-10-22T11:20:47.381Z,22.20
2017-10-22T11:28:02.001Z,22.00
2017-10-22T11:31:28.241Z,22.30
2017-10-22T11:34:54.951Z,22.40
2017-10-22T11:38:20.686Z,22.40
2017-10-22T11:41:46.375Z,22.30
2017-10-22T11:45:13.656Z,22.80
2017-10-22T11:48:38.829Z,22.80
2017-10-22T11:52:04.043Z,22.80
2017-10-22T11:55:45.404Z,22.80
2017-10-22T11:59:11.580Z,22.70
2017-10-22T12:02:37.535Z,22.60
2017-10-22T12:06:14.120Z,22.50
2017-10-22T12:09:41.130Z,22.40
2017-10-22T12:13:07.229Z,22.40
2017-10-22T12:16:34.304Z,22.30
2017-10-22T12:20:00.021Z,22.30
2017-10-22T12:23:26.077Z,22.30
2017-10-22T12:26:53.132Z,22.30
2017-10-22T12:30:21.197Z,22.20
2017-10-22T12:33:59.770Z,22.20
2017-10-22T12:37:26.430Z,22.10
2017-10-22T12:40:55.658Z,22.00
2017-10-22T12:44:24.726Z,21.80
2017-10-22T12:47:50.143Z,21.80
2017-10-22T12:51:17.809Z,21.80
2017-10-22T12:54:44.189Z,21.70
2017-10-22T12:58:10.196Z,21.70
2017-10-22T13:01:41.392Z,21.70
2017-10-22T13:05:20.854Z,21.70
2017-10-22T13:08:48.020Z,21.60
2017-10-22T13:12:18.901Z,21.30
2017-10-22T13:15:45.793Z,21.30
2017-10-22T13:19:20.012Z,21.30
2017-10-22T13:22:45.543Z,21.30
2017-10-22T13:26:11.641Z,21.20
2017-10-22T13:29:38.390Z,21.20
2017-10-22T13:36:57.221Z,21.00
2017-10-22T13:40:25.544Z,21.30
2017-10-22T13:43:51.943Z,21.30
2017-10-22T13:47:18.132Z,21.60
2017-10-22T13:50:55.414Z,21.60
2017-10-22T13:54:22.510Z,21.90
2017-10-22T13:57:47.853Z,22.10
2017-10-22T14:01:14.545Z,22.30
2017-10-22T14:04:40.648Z,22.60
2017-10-22T14:08:06.000Z,22.70
2017-10-22T14:11:37.406Z,22.90
2017-10-22T14:15:03.787Z,23.20
2017-10-22T14:18:30.343Z,23.40
2017-10-22T14:22:02.960Z,23.40
2017-10-22T14:25:28.419Z,23.50
2017-10-22T14:28:54.944Z,23.60
2017-10-22T14:32:25.615Z,23.50
2017-10-22T14:35:52.812Z,23.80
2017-10-22T14:39:19.648Z,23.90
2017-10-22T14:42:47.894Z,24.00
2017-10-22T14:46:15.597Z,23.90
2017-10-22T14:49:43.237Z,24.10
2017-10-22T14:53:09.206Z,24.10
2017-10-22T14:56:37.391Z,24.00
2017-10-22T15:00:06.144Z,23.90
2017-10-22T15:03:48.624Z,23.90
2017-10-22T15:07:25.720Z,23.90
2017-10-22T15:11:00.268Z,23.80
2017-10-22T15:14:26.212Z,23.70
2017-10-22T15:17:59.600Z,23.60
2017-10-22T15:21:26.152Z,23.50
2017-10-22T15:24:52.736Z,23.20
2017-10-22T15:32:03.248Z,22.90
2017-10-22T15:35:37.173Z,22.70
2017-10-22T15:39:12.960Z,22.50
2017-10-22T15:42:49.543Z,22.50
2017-10-22T15:46:18.135Z,22.40
2017-10-22T15:49:45.514Z,22.30
2017-10-22T15:53:28.062Z,22.20
2017-10-22T15:57:02.838Z,22.10
2017-10-22T16:00:43.479Z,22.00
2017-10-22T16:04:14.627Z,21.90
2017-10-22T16:07:40.563Z,21.80
2017-10-22T16:11:08.893Z,21.60
2017-10-22T16:14:34.478Z,21.60
2017-10-22T16:18:02.100Z,21.60
2017-10-22T16:21:29.560Z,21.50
2017-10-22T16:24:55.875Z,21.40
2017-10-22T16:28:21.571Z,21.30
2017-10-22T16:31:52.497Z,21.20
2017-10-22T16:35:19.607Z,21.20
2017-10-22T16:38:46.309Z,21.10
2017-10-22T16:42:13.048Z,21.00
2017-10-22T16:45:39.108Z,21.00
2017-10-22T16:49:04.606Z,20.90
2017-10-22T16:52:36.738Z,20.80
2017-10-22T16:56:06.693Z,20.80
2017-10-22T16:59:36.768Z,20.70
2017-10-22T17:06:35.893Z,20.70
2017-10-22T17:10:07.707Z,20.70
2017-10-22T17:13:35.506Z,20.60
2017-10-22T17:17:03.758Z,20.60
2017-10-22T17:20:40.093Z,20.60
2017-10-22T17:24:08.134Z,20.80
2017-10-22T17:27:35.170Z,20.70
2017-10-22T17:31:11.399Z,20.80
2017-10-22T17:34:38.930Z,20.90
2017-10-22T17:38:09.220Z,21.00
2017-10-22T17:41:41.300Z,21.10
2017-10-22T17:45:09.182Z,21.10
2017-10-22T17:48:46.977Z,21.10
2017-10-22T17:52:13.232Z,21.00
2017-10-22T17:55:41.427Z,20.90
2017-10-22T17:59:28.283Z,20.90
2017-10-22T18:02:57.494Z,20.90
2017-10-22T18:06:25.730Z,20.80
2017-10-22T18:09:55.120Z,20.80
2017-10-22T18:13:22.250Z,20.80
2017-10-22T18:16:55.897Z,20.70
2017-10-22T18:20:26.212Z,20.70
2017-10-22T18:23:52.722Z,20.80
2017-10-22T18:27:23.613Z,20.80
2017-10-22T18:30:52.959Z,20.60
2017-10-22T18:34:20.619Z,20.60
2017-10-22T18:37:55.043Z,20.60
2017-10-22T18:41:21.837Z,20.50
2017-10-22T18:44:58.654Z,20.50
2017-10-22T18:48:28.470Z,20.40
2017-10-22T18:52:04.070Z,20.40
2017-10-22T18:55:37.001Z,20.40
2017-10-22T18:59:04.567Z,20.30
2017-10-22T19:02:33.584Z,20.30
2017-10-22T19:06:01.547Z,20.20
2017-10-22T19:09:31.640Z,20.20
2017-10-22T19:12:58.742Z,20.20
2017-10-22T19:16:23.924Z,20.20
2017-10-22T19:19:54.660Z,20.10
2017-10-22T19:23:21.932Z,20.10
2017-10-22T19:26:51.581Z,20.10
2017-10-22T19:30:18.609Z,20.10
2017-10-22T19:33:49.405Z,20.10
2017-10-22T19:37:18.074Z,20.00
2017-10-22T19:40:44.313Z,19.90
2017-10-22T19:44:13.349Z,20.00
2017-10-22T19:47:39.709Z,20.00
2017-10-22T19:51:05.434Z,19.90
2017-10-22T19:54:50.939Z,19.90
2017-10-22T19:58:16.518Z,19.90
2017-10-22T20:01:42.571Z,19.90
2017-10-22T20:05:10.366Z,20.10
2017-10-22T20:08:37.346Z,20.10
2017-10-22T20:12:03.480Z,20.20
2017-10-22T20:15:32.757Z,20.40
2017-10-22T20:19:00.839Z,20.40
2017-10-22T20:22:27.039Z,20.50
2017-10-22T20:25:56.013Z,20.70
2017-10-22T20:29:24.017Z,20.90
2017-10-22T20:32:51.380Z,21.10
2017-10-22T20:36:22.373Z,21.40
2017-10-22T20:39:47.885Z,21.40
2017-10-22T20:43:13.289Z,21.50
2017-10-22T20:46:40.233Z,21.60
2017-10-22T20:50:07.538Z,21.60
2017-10-22T20:53:33.282Z,21.60
2017-10-22T20:57:10.779Z,21.50
2017-10-22T21:00:36.294Z,21.50
2017-10-22T21:04:01.543Z,21.40
2017-10-22T21:07:31.249Z,21.30
2017-10-22T21:10:56.652Z,21.30
2017-10-22T21:14:21.793Z,21.10
2017-10-22T21:17:48.218Z,21.00
2017-10-22T21:21:13.441Z,20.90
2017-10-22T21:24:38.577Z,20.80
2017-10-22T21:28:09.728Z,20.60
2017-10-22T21:31:34.986Z,20.60
2017-10-22T21:35:01.869Z,20.50
2017-10-22T21:38:27.175Z,20.40
2017-10-22T21:41:52.285Z,20.40
2017-10-22T21:45:17.738Z,20.20
2017-10-22T21:48:42.907Z,20.20
2017-10-22T21:52:08.089Z,20.10
2017-10-22T21:55:33.882Z,20.20
2017-10-22T21:59:00.904Z,20.10
2017-10-22T22:02:26.139Z,20.10
2017-10-22T22:05:52.747Z,20.00
2017-10-22T22:09:18.003Z,19.90
2017-10-22T22:12:50.528Z,19.90
2017-10-22T22:16:15.660Z,19.80
2017-10-22T22:19:41.460Z,19.80
2017-10-22T22:23:07.868Z,19.80
2017-10-22T22:26:33.784Z,19.60
2017-10-22T22:29:59.815Z,19.60
2017-10-22T22:33:24.927Z,19.60
2017-10-22T22:36:49.991Z,19.60
2017-10-22T22:40:15.635Z,19.60
2017-10-22T22:43:40.780Z,19.50
2017-10-22T22:47:06.957Z,19.40
2017-10-22T22:50:32.428Z,19.40
2017-10-22T22:53:58.457Z,19.30
2017-10-22T22:57:24.307Z,19.30
2017-10-22T23:00:56.798Z,19.30
2017-10-22T23:04:21.981Z,19.30
2017-10-22T23:07:47.626Z,19.30
2017-10-22T23:11:13.023Z,19.20
2017-10-22T23:14:38.501Z,19.20
2017-10-22T23:18:03.775Z,19.30
2017-10-22T23:21:30.280Z,19.20
2017-10-22T23:24:55.504Z,19.20
2017-10-22T23:28:22.125Z,19.20
2017-10-22T23:31:47.309Z,19.10
2017-10-22T23:35:13.252Z,19.10
2017-10-22T23:38:48.682Z,19.10
2017-10-22T23:42:13.884Z,19.00
2017-10-22T23:45:40.088Z,19.00
2017-10-22T23:49:09.204Z,19.00
2017-10-22T23:52:34.644Z,19.00
2017-10-22T23:55:59.916Z,18.90
2017-10-22T23:59:31.008Z,18.90
